createdAt,value
2023-04-17T00:01:11.683Z,41.22
2023-04-17T00:03:39.672Z,38.22
2023-04-17T00:06:07.628Z,36.45
2023-04-17T00:08:35.590Z,34.17
2023-04-17T00:11:07.934Z,32.75
2023-04-17T00:13:37.090Z,35.58
2023-04-17T00:16:04.861Z,34.67
2023-04-17T00:18:32.805Z,33.92
2023-04-17T00:21:00.462Z,34.80
2023-04-17T00:23:28.618Z,37.20
2023-04-17T00:25:56.269Z,35.13
2023-04-17T00:28:24.456Z,36.60
2023-04-17T00:30:52.409Z,36.00
2023-04-17T00:33:20.776Z,33.90
2023-04-17T00:35:49.001Z,33.35
2023-04-17T00:38:16.901Z,33.65
2023-04-17T00:40:47.405Z,35.13
2023-04-17T00:43:15.501Z,36.38
2023-04-17T00:45:43.216Z,37.10
2023-04-17T00:48:13.283Z,33.20
2023-04-17T00:50:42.040Z,35.05
2023-04-17T00:53:10.652Z,34.92
2023-04-17T00:55:41.492Z,31.92
2023-04-17T00:58:11.058Z,33.28
2023-04-17T01:00:38.968Z,34.50
2023-04-17T01:03:07.070Z,32.63
2023-04-17T01:05:36.123Z,34.67
2023-04-17T01:08:04.358Z,32.78
2023-04-17T01:10:32.157Z,34.15
2023-04-17T01:13:07.837Z,33.95
2023-04-17T01:15:37.074Z,33.60
2023-04-17T01:18:06.623Z,33.90
2023-04-17T01:20:34.893Z,34.35
2023-04-17T01:23:02.763Z,38.10
2023-04-17T01:25:31.244Z,33.50
2023-04-17T01:27:58.995Z,32.40
2023-04-17T01:30:29.099Z,33.95
2023-04-17T01:33:02.363Z,36.13
2023-04-17T01:35:30.596Z,37.58
2023-04-17T01:37:58.996Z,34.47
2023-04-17T01:40:27.086Z,35.47
2023-04-17T01:42:54.769Z,34.13
2023-04-17T01:45:22.756Z,33.58
2023-04-17T01:47:51.432Z,36.38
2023-04-17T01:50:19.530Z,34.20
2023-04-17T01:52:47.232Z,37.97
2023-04-17T01:55:15.137Z,34.03
2023-04-17T01:57:42.874Z,35.85
2023-04-17T02:00:11.259Z,37.25
2023-04-17T02:02:43.868Z,37.40
2023-04-17T02:05:12.217Z,38.85
2023-04-17T02:07:39.835Z,36.63
2023-04-17T02:10:08.427Z,38.03
2023-04-17T02:12:37.635Z,36.00
2023-04-17T02:15:06.128Z,38.22
2023-04-17T02:17:34.080Z,36.65
2023-04-17T02:20:02.223Z,34.97
2023-04-17T02:22:32.446Z,35.00
2023-04-17T02:25:00.408Z,33.95
2023-04-17T02:27:28.332Z,38.25
2023-04-17T02:29:56.665Z,43.20
2023-04-17T02:32:24.433Z,34.90
2023-04-17T02:34:53.110Z,41.83
2023-04-17T02:37:21.696Z,38.58
2023-04-17T02:39:50.616Z,36.17
2023-04-17T02:42:18.494Z,52.58
2023-04-17T02:44:49.105Z,52.42
2023-04-17T02:47:16.788Z,42.00
2023-04-17T02:49:44.889Z,43.92
2023-04-17T02:52:12.645Z,43.63
2023-04-17T02:54:40.631Z,39.92
2023-04-17T02:57:09.466Z,41.83
2023-04-17T02:59:37.481Z,54.20
2023-04-17T03:02:05.463Z,43.42
2023-04-17T03:04:34.615Z,41.85
2023-04-17T03:07:02.275Z,36.92
2023-04-17T03:09:31.050Z,37.30
2023-04-17T03:11:58.722Z,39.97
2023-04-17T03:14:26.636Z,41.53
2023-04-17T03:16:54.312Z,38.97
2023-04-17T03:19:22.335Z,37.95
2023-04-17T03:21:49.990Z,39.30
2023-04-17T03:24:17.857Z,39.38
2023-04-17T03:26:45.700Z,40.58
2023-04-17T03:29:19.372Z,38.88
2023-04-17T03:31:47.123Z,38.28
2023-04-17T03:34:15.338Z,38.53
2023-04-17T03:36:43.170Z,37.03
2023-04-17T03:39:11.471Z,40.85
2023-04-17T03:41:39.754Z,43.03
2023-04-17T03:44:09.199Z,38.45
2023-04-17T03:46:37.780Z,41.60
2023-04-17T03:49:06.333Z,45.92
2023-04-17T03:51:34.228Z,39.80
2023-04-17T03:54:10.843Z,42.85
2023-04-17T03:56:38.547Z,43.28
2023-04-17T03:59:06.966Z,47.10
2023-04-17T04:01:39.295Z,44.60
2023-04-17T04:04:28.163Z,48.90
2023-04-17T04:07:06.570Z,43.05
2023-04-17T04:09:35.966Z,43.50
2023-04-17T04:12:05.755Z,41.42
2023-04-17T04:14:41.865Z,43.08
2023-04-17T04:17:10.540Z,41.95
2023-04-17T04:19:39.780Z,42.20
2023-04-17T04:22:08.176Z,39.55
2023-04-17T04:24:45.684Z,41.40
2023-04-17T04:27:18.077Z,37.90
2023-04-17T04:29:48.922Z,39.95
2023-04-17T04:32:19.710Z,42.13
2023-04-17T04:34:48.649Z,39.17
2023-04-17T04:37:16.261Z,40.20
2023-04-17T04:39:47.353Z,39.50
2023-04-17T04:42:21.981Z,37.70
2023-04-17T04:45:19.137Z,40.53
2023-04-17T04:47:47.302Z,38.55
2023-04-17T04:50:15.581Z,39.88
2023-04-17T04:52:43.288Z,37.30
2023-04-17T04:55:24.661Z,39.05
2023-04-17T04:57:55.478Z,38.78
2023-04-17T05:00:25.114Z,37.78
2023-04-17T05:02:55.752Z,35.53
2023-04-17T05:05:26.203Z,37.80
2023-04-17T05:07:55.187Z,36.67
2023-04-17T05:10:26.798Z,39.97
2023-04-17T05:15:28.716Z,39.78
2023-04-17T05:17:57.085Z,34.95
2023-04-17T05:20:26.917Z,32.58
2023-04-17T05:22:57.684Z,36.90
2023-04-17T05:25:25.807Z,35.88
2023-04-17T05:27:55.566Z,31.40
2023-04-17T05:30:23.700Z,28.42
2023-04-17T05:33:01.018Z,32.47
2023-04-17T05:35:42.262Z,33.92
2023-04-17T05:38:09.976Z,29.58
2023-04-17T05:40:37.994Z,31.00
2023-04-17T05:43:09.678Z,31.83
2023-04-17T05:45:38.641Z,30.20
2023-04-17T05:48:09.739Z,29.63
2023-04-17T05:50:37.787Z,29.58
2023-04-17T05:53:07.049Z,30.33
2023-04-17T05:55:40.517Z,29.42
2023-04-17T05:58:23.263Z,28.33
2023-04-17T06:00:55.652Z,31.48
2023-04-17T06:03:24.443Z,26.52
2023-04-17T06:06:00.181Z,27.88
2023-04-17T06:08:28.170Z,26.10
2023-04-17T06:10:56.451Z,27.45
2023-04-17T06:13:24.648Z,26.92
2023-04-17T06:15:53.936Z,26.17
2023-04-17T06:18:21.611Z,28.08
2023-04-17T06:20:49.732Z,26.38
2023-04-17T06:23:17.448Z,26.63
2023-04-17T06:25:45.427Z,25.98
2023-04-17T06:28:13.505Z,29.95
2023-04-17T06:30:41.568Z,28.77
2023-04-17T06:33:09.950Z,25.85
2023-04-17T06:35:38.415Z,28.67
2023-04-17T06:38:17.751Z,28.35
2023-04-17T06:40:46.733Z,28.48
2023-04-17T06:43:16.941Z,36.13
2023-04-17T06:45:45.085Z,29.63
2023-04-17T06:48:12.792Z,26.63
2023-04-17T06:50:40.766Z,27.40
2023-04-17T06:53:08.474Z,24.17
2023-04-17T06:55:36.612Z,25.73
2023-04-17T06:58:05.083Z,25.60
2023-04-17T07:00:33.088Z,29.15
2023-04-17T07:03:01.758Z,27.30
2023-04-17T07:05:29.863Z,24.33
2023-04-17T07:07:57.625Z,24.10
2023-04-17T07:10:25.730Z,26.55
2023-04-17T07:12:53.478Z,23.35
2023-04-17T07:15:21.545Z,25.17
2023-04-17T07:17:49.207Z,28.05
2023-04-17T07:20:17.169Z,25.45
2023-04-17T07:22:44.931Z,29.27
2023-04-17T07:25:13.033Z,24.15
2023-04-17T07:27:40.733Z,26.02
2023-04-17T07:30:09.849Z,27.08
2023-04-17T07:32:37.626Z,29.02
2023-04-17T07:35:06.438Z,25.33
2023-04-17T07:37:36.980Z,22.55
2023-04-17T07:40:10.226Z,25.75
2023-04-17T07:42:38.274Z,24.45
2023-04-17T07:45:07.288Z,24.55
2023-04-17T07:47:35.097Z,24.45
2023-04-17T07:50:03.250Z,26.00
2023-04-17T07:52:31.165Z,24.75
2023-04-17T07:54:59.116Z,25.00
2023-04-17T07:57:26.842Z,24.15
2023-04-17T07:59:54.877Z,23.63
2023-04-17T08:02:22.872Z,24.65
2023-04-17T08:04:52.293Z,28.17
2023-04-17T08:07:20.325Z,25.50
2023-04-17T08:09:48.252Z,23.73
2023-04-17T08:12:15.926Z,23.17
2023-04-17T08:14:43.955Z,22.05
2023-04-17T08:17:11.818Z,21.85
2023-04-17T08:19:39.871Z,22.15
2023-04-17T08:22:08.256Z,22.33
2023-04-17T08:24:36.184Z,22.88
2023-04-17T08:27:05.229Z,19.65
2023-04-17T08:29:33.197Z,20.75
2023-04-17T08:32:14.120Z,22.88
2023-04-17T08:34:44.455Z,21.95
2023-04-17T08:37:12.168Z,21.40
2023-04-17T08:39:40.233Z,20.40
2023-04-17T08:42:15.382Z,19.67
2023-04-17T08:44:46.099Z,20.27
2023-04-17T08:47:14.845Z,19.75
2023-04-17T08:49:43.957Z,18.60
2023-04-17T08:52:12.178Z,21.23
2023-04-17T08:54:40.426Z,20.00
2023-04-17T08:57:08.301Z,20.50
2023-04-17T08:59:36.279Z,22.70
2023-04-17T09:02:06.861Z,20.85
2023-04-17T09:04:37.776Z,22.48
2023-04-17T09:07:07.075Z,19.30
2023-04-17T09:09:49.616Z,18.02
2023-04-17T09:12:18.709Z,18.27
2023-04-17T09:14:46.825Z,18.92
2023-04-17T09:17:19.150Z,20.65
2023-04-17T09:20:08.936Z,19.35
2023-04-17T09:22:40.238Z,19.05
2023-04-17T09:25:28.161Z,20.17
2023-04-17T09:28:08.630Z,18.77
2023-04-17T09:30:41.073Z,17.02
2023-04-17T09:33:11.838Z,22.55
2023-04-17T09:35:40.562Z,22.60
2023-04-17T09:38:08.449Z,19.95
2023-04-17T09:40:41.247Z,19.52
2023-04-17T09:43:10.802Z,18.50
2023-04-17T09:45:42.442Z,17.70
2023-04-17T09:48:12.848Z,16.73
2023-04-17T09:50:41.190Z,17.92
2023-04-17T09:53:09.446Z,19.33
2023-04-17T09:55:38.907Z,20.52
2023-04-17T09:58:08.078Z,18.73
2023-04-17T10:00:37.902Z,20.10
2023-04-17T10:03:07.323Z,18.90
2023-04-17T10:05:36.818Z,18.50
2023-04-17T10:08:05.727Z,18.70
2023-04-17T10:10:34.955Z,18.30
2023-04-17T10:13:11.214Z,19.90
2023-04-17T10:15:39.788Z,18.13
2023-04-17T10:18:24.849Z,20.88
2023-04-17T10:20:55.344Z,20.83
2023-04-17T10:23:30.252Z,17.63
2023-04-17T10:26:26.601Z,17.33
2023-04-17T10:28:56.007Z,20.10
2023-04-17T10:31:44.176Z,19.98
2023-04-17T10:34:39.299Z,19.75
2023-04-17T10:37:08.612Z,19.73
2023-04-17T10:39:56.812Z,17.65
2023-04-17T10:42:25.777Z,18.67
2023-04-17T10:44:59.744Z,16.27
2023-04-17T10:47:33.696Z,17.08
2023-04-17T10:50:04.408Z,14.63
2023-04-17T10:52:35.218Z,16.67
2023-04-17T10:55:20.749Z,21.15
2023-04-17T10:58:04.830Z,19.67
2023-04-17T11:00:50.340Z,18.90
2023-04-17T11:03:18.562Z,14.90
2023-04-17T11:05:47.622Z,19.17
2023-04-17T11:08:16.266Z,16.02
2023-04-17T11:10:44.157Z,16.40
2023-04-17T11:13:12.074Z,14.35
2023-04-17T11:15:39.767Z,12.75
2023-04-17T11:18:08.376Z,13.70
2023-04-17T11:20:37.959Z,13.93
2023-04-17T11:23:06.738Z,18.90
2023-04-17T11:25:34.990Z,16.25
2023-04-17T11:28:06.573Z,14.95
2023-04-17T11:30:36.280Z,14.77
2023-04-17T11:33:06.601Z,12.30
2023-04-17T11:35:39.646Z,13.32
2023-04-17T11:38:19.111Z,12.80
2023-04-17T11:40:53.466Z,13.98
2023-04-17T11:43:23.425Z,13.85
2023-04-17T11:45:59.236Z,15.20
2023-04-17T11:48:29.220Z,13.93
2023-04-17T11:51:03.891Z,12.50
2023-04-17T11:53:34.220Z,12.65
2023-04-17T11:56:19.307Z,14.20
2023-04-17T11:58:54.204Z,14.13
2023-04-17T12:01:25.483Z,14.73
2023-04-17T12:03:55.585Z,13.93
2023-04-17T12:06:27.915Z,13.85
2023-04-17T12:08:56.233Z,15.02
2023-04-17T12:11:24.778Z,16.25
2023-04-17T12:13:53.917Z,14.57
2023-04-17T12:16:22.595Z,15.50
2023-04-17T12:18:50.873Z,13.90
2023-04-17T12:21:20.648Z,11.60
2023-04-17T12:23:49.020Z,11.70
2023-04-17T12:26:16.689Z,12.40
2023-04-17T12:28:44.976Z,10.60
2023-04-17T12:31:12.875Z,10.65
2023-04-17T12:33:41.512Z,11.75
2023-04-17T12:36:09.822Z,12.80
2023-04-17T12:38:37.985Z,9.90
2023-04-17T12:41:05.815Z,12.57
2023-04-17T12:43:33.831Z,10.40
2023-04-17T12:46:02.325Z,12.93
2023-04-17T12:48:32.700Z,10.65
2023-04-17T12:51:00.848Z,9.70
2023-04-17T12:53:30.019Z,10.05
2023-04-17T12:55:58.287Z,8.20
2023-04-17T12:58:26.254Z,9.02
2023-04-17T13:00:53.967Z,10.48
2023-04-17T13:03:22.444Z,7.80
2023-04-17T13:05:52.780Z,10.45
2023-04-17T13:08:21.091Z,8.18
2023-04-17T13:10:48.745Z,7.82
2023-04-17T13:13:16.689Z,7.88
2023-04-17T13:15:47.419Z,8.15
2023-04-17T13:20:43.472Z,11.27
2023-04-17T13:23:12.013Z,9.95
2023-04-17T13:25:39.844Z,9.75
2023-04-17T13:28:07.803Z,7.90
2023-04-17T13:30:37.251Z,7.68
2023-04-17T13:33:05.648Z,15.02
2023-04-17T13:35:33.923Z,11.02
2023-04-17T13:38:03.191Z,9.68
2023-04-17T13:40:31.412Z,9.52
2023-04-17T13:43:00.440Z,11.32
2023-04-17T13:45:28.196Z,10.27
2023-04-17T13:47:56.230Z,10.20
2023-04-17T13:50:23.883Z,8.70
2023-04-17T13:52:51.764Z,10.10
2023-04-17T13:55:19.576Z,9.32
2023-04-17T13:57:47.538Z,11.20
2023-04-17T14:00:15.656Z,11.85
2023-04-17T14:02:43.730Z,11.32
2023-04-17T14:05:11.926Z,9.40
2023-04-17T14:07:40.048Z,10.35
2023-04-17T14:10:08.643Z,12.57
2023-04-17T14:12:36.686Z,12.25
2023-04-17T14:15:04.635Z,10.32
2023-04-17T14:17:32.648Z,9.25
2023-04-17T14:20:00.467Z,11.00
2023-04-17T14:22:28.367Z,10.52
2023-04-17T14:24:55.960Z,9.32
2023-04-17T14:27:23.900Z,11.20
2023-04-17T14:29:51.556Z,11.35
2023-04-17T14:32:19.620Z,11.00
2023-04-17T14:34:47.336Z,10.63
2023-04-17T14:37:15.301Z,11.25
2023-04-17T14:39:43.126Z,14.70
2023-04-17T14:42:10.983Z,13.40
2023-04-17T14:44:38.637Z,12.93
2023-04-17T14:47:07.255Z,11.10
2023-04-17T14:49:34.950Z,15.60
2023-04-17T14:52:02.903Z,11.55
2023-04-17T14:54:30.545Z,12.80
2023-04-17T14:56:58.670Z,12.85
2023-04-17T14:59:28.004Z,10.18
2023-04-17T15:01:56.261Z,10.15
2023-04-17T15:04:24.072Z,9.23
2023-04-17T15:06:52.373Z,9.23
2023-04-17T15:09:20.029Z,10.25
2023-04-17T15:11:48.014Z,11.32
2023-04-17T15:14:15.686Z,16.40
2023-04-17T15:16:43.761Z,9.75
2023-04-17T15:19:11.590Z,10.82
2023-04-17T15:21:39.718Z,11.75
2023-04-17T15:24:07.538Z,11.20
2023-04-17T15:26:35.621Z,13.20
2023-04-17T15:29:03.798Z,15.38
2023-04-17T15:31:31.797Z,12.98
2023-04-17T15:33:59.514Z,14.48
2023-04-17T15:36:33.958Z,19.23
2023-04-17T15:39:01.638Z,12.20
2023-04-17T15:41:29.601Z,12.70
2023-04-17T15:43:57.237Z,13.25
2023-04-17T15:46:25.278Z,11.82
2023-04-17T15:49:07.570Z,13.27
2023-04-17T15:51:36.039Z,12.45
2023-04-17T15:54:03.723Z,12.57
2023-04-17T15:56:31.666Z,13.13
2023-04-17T15:58:59.417Z,11.65
2023-04-17T16:01:28.627Z,11.02
2023-04-17T16:03:56.478Z,11.18
2023-04-17T16:06:24.580Z,12.65
2023-04-17T16:08:52.238Z,14.20
2023-04-17T16:11:20.573Z,11.10
2023-04-17T16:13:48.229Z,11.18
2023-04-17T16:16:16.190Z,11.25
2023-04-17T16:18:46.377Z,9.63
2023-04-17T16:21:14.655Z,11.00
2023-04-17T16:23:42.417Z,11.48
2023-04-17T16:26:13.360Z,10.02
2023-04-17T16:28:41.209Z,9.48
2023-04-17T16:31:09.751Z,10.32
2023-04-17T16:33:37.771Z,12.57
2023-04-17T16:36:05.872Z,7.55
2023-04-17T16:38:35.527Z,8.25
2023-04-17T16:41:04.346Z,10.65
2023-04-17T16:43:32.083Z,10.15
2023-04-17T16:46:03.303Z,9.00
2023-04-17T16:48:36.174Z,8.25
2023-04-17T16:51:05.271Z,11.23
2023-04-17T16:53:33.035Z,10.23
2023-04-17T16:56:00.981Z,12.05
2023-04-17T16:58:28.697Z,13.82
2023-04-17T17:00:56.835Z,12.20
2023-04-17T17:03:24.694Z,10.48
2023-04-17T17:05:52.849Z,8.55
2023-04-17T17:08:20.469Z,10.00
2023-04-17T17:10:50.082Z,11.43
2023-04-17T17:13:17.764Z,11.10
2023-04-17T17:15:45.768Z,8.93
2023-04-17T17:18:13.400Z,10.18
2023-04-17T17:20:41.670Z,10.70
2023-04-17T17:23:09.280Z,9.52
2023-04-17T17:25:37.313Z,11.45
2023-04-17T17:28:04.997Z,11.50
2023-04-17T17:30:33.012Z,10.45
2023-04-17T17:33:00.708Z,11.70
2023-04-17T17:35:28.661Z,10.68
2023-04-17T17:37:56.447Z,13.05
2023-04-17T17:40:24.500Z,12.27
2023-04-17T17:42:52.096Z,11.88
2023-04-17T17:45:20.138Z,9.35
2023-04-17T17:47:47.869Z,10.90
2023-04-17T17:50:15.922Z,11.90
2023-04-17T17:52:43.576Z,11.63
2023-04-17T17:55:15.514Z,15.10
2023-04-17T17:57:49.486Z,12.82
2023-04-17T18:00:18.109Z,14.23
2023-04-17T18:02:46.157Z,16.98
2023-04-17T18:05:14.508Z,16.42
2023-04-17T18:07:43.198Z,16.85
2023-04-17T18:10:11.414Z,16.52
2023-04-17T18:12:39.062Z,13.43
2023-04-17T18:15:07.668Z,16.10
2023-04-17T18:17:35.393Z,17.35
2023-04-17T18:20:03.606Z,18.15
2023-04-17T18:22:31.231Z,14.13
2023-04-17T18:24:59.210Z,15.00
2023-04-17T18:27:26.927Z,12.82
2023-04-17T18:29:54.861Z,13.68
2023-04-17T18:32:22.629Z,12.98
2023-04-17T18:34:51.309Z,12.18
2023-04-17T18:37:19.039Z,12.82
2023-04-17T18:39:47.089Z,14.75
2023-04-17T18:42:14.869Z,14.05
2023-04-17T18:44:42.893Z,15.13
2023-04-17T18:47:10.617Z,17.05
2023-04-17T18:49:38.569Z,12.18
2023-04-17T18:52:06.286Z,13.52
2023-04-17T18:54:35.142Z,11.43
2023-04-17T18:57:02.791Z,14.38
2023-04-17T18:59:31.038Z,11.25
2023-04-17T19:01:58.729Z,13.07
2023-04-17T19:04:26.845Z,13.38
2023-04-17T19:06:54.562Z,14.32
2023-04-17T19:09:22.468Z,12.27
2023-04-17T19:11:50.290Z,11.88
2023-04-17T19:14:18.259Z,15.25
2023-04-17T19:16:47.395Z,18.27
2023-04-17T19:19:15.701Z,13.02
2023-04-17T19:21:43.471Z,17.13
2023-04-17T19:24:11.419Z,24.45
2023-04-17T19:26:39.186Z,19.20
2023-04-17T19:29:07.176Z,18.65
2023-04-17T19:31:34.901Z,18.08
2023-04-17T19:34:03.012Z,18.42
2023-04-17T19:36:31.199Z,18.58
2023-04-17T19:38:59.880Z,20.13
2023-04-17T19:41:27.841Z,18.40
2023-04-17T19:43:55.808Z,17.70
2023-04-17T19:46:24.369Z,17.30
2023-04-17T19:48:52.674Z,16.88
2023-04-17T19:51:20.571Z,19.30
2023-04-17T19:53:48.510Z,21.33
2023-04-17T19:56:16.334Z,19.58
2023-04-17T19:58:44.438Z,22.02
2023-04-17T20:01:12.142Z,20.77
2023-04-17T20:03:42.172Z,22.00
2023-04-17T20:06:10.289Z,19.23
2023-04-17T20:08:38.206Z,18.08
2023-04-17T20:11:06.478Z,18.42
2023-04-17T20:13:34.559Z,19.17
2023-04-17T20:16:02.215Z,22.30
2023-04-17T20:18:30.423Z,22.10
2023-04-17T20:20:58.000Z,19.00
2023-04-17T20:23:26.058Z,21.40
2023-04-17T20:25:53.781Z,21.30
2023-04-17T20:28:22.931Z,20.73
2023-04-17T20:30:50.536Z,21.27
2023-04-17T20:33:18.603Z,20.55
2023-04-17T20:35:46.415Z,23.70
2023-04-17T20:38:14.356Z,25.33
2023-04-17T20:40:42.136Z,22.75
2023-04-17T20:43:10.133Z,22.48
2023-04-17T20:45:37.959Z,22.05
2023-04-17T20:48:05.976Z,26.88
2023-04-17T20:50:33.795Z,30.10
2023-04-17T20:53:01.924Z,26.67
2023-04-17T20:55:29.716Z,27.58
2023-04-17T20:57:57.622Z,25.48
2023-04-17T21:00:25.449Z,22.98
2023-04-17T21:02:53.720Z,24.10
2023-04-17T21:05:21.634Z,23.65
2023-04-17T21:07:51.359Z,22.98
2023-04-17T21:10:20.176Z,23.23
2023-04-17T21:12:48.202Z,21.40
2023-04-17T21:15:15.944Z,22.25
2023-04-17T21:17:47.863Z,24.67
2023-04-17T21:20:15.885Z,21.58
2023-04-17T21:22:43.769Z,24.60
2023-04-17T21:25:11.594Z,22.55
2023-04-17T21:27:41.418Z,24.33
2023-04-17T21:30:10.668Z,27.13
2023-04-17T21:32:40.607Z,30.33
2023-04-17T21:35:09.242Z,29.73
2023-04-17T21:37:37.201Z,32.40
2023-04-17T21:40:05.470Z,28.83
2023-04-17T21:42:33.436Z,29.02
2023-04-17T21:45:01.201Z,28.50
2023-04-17T21:47:29.282Z,29.50
2023-04-17T21:49:56.852Z,27.33
2023-04-17T21:52:24.725Z,29.13
2023-04-17T21:54:52.464Z,28.85
2023-04-17T21:57:20.450Z,32.58
2023-04-17T21:59:48.564Z,32.65
2023-04-17T22:02:16.526Z,35.90
2023-04-17T22:04:44.421Z,37.08
2023-04-17T22:07:12.489Z,34.80
2023-04-17T22:09:40.286Z,42.88
2023-04-17T22:12:17.755Z,39.33
2023-04-17T22:14:45.558Z,43.78
2023-04-17T22:17:13.827Z,38.13
2023-04-17T22:19:41.858Z,43.10
2023-04-17T22:23:06.357Z,41.97
2023-04-17T22:26:49.267Z,42.38
2023-04-17T22:30:31.430Z,36.88
2023-04-17T22:34:14.964Z,35.42
2023-04-17T22:37:57.855Z,32.50
2023-04-17T22:41:40.696Z,30.63
2023-04-17T22:45:23.362Z,30.95
2023-04-17T22:49:06.610Z,32.60
2023-04-17T22:52:48.834Z,30.02
2023-04-17T22:56:31.919Z,31.63
2023-04-17T23:00:14.536Z,33.75
2023-04-17T23:03:57.884Z,29.17
2023-04-17T23:07:40.172Z,33.30
2023-04-17T23:10:26.530Z,33.70
2023-04-17T23:12:54.270Z,34.50
2023-04-17T23:15:22.315Z,34.45
2023-04-17T23:17:49.965Z,32.50
2023-04-17T23:20:18.116Z,33.03
2023-04-17T23:22:45.753Z,35.90
2023-04-17T23:25:13.850Z,33.83
2023-04-17T23:27:41.522Z,31.25
2023-04-17T23:30:09.943Z,34.88
2023-04-17T23:32:37.734Z,32.35
2023-04-17T23:35:06.425Z,34.33
2023-04-17T23:37:34.064Z,35.22
2023-04-17T23:40:02.562Z,30.98
2023-04-17T23:42:30.472Z,30.45
2023-04-17T23:44:58.413Z,31.23
2023-04-17T23:47:26.116Z,27.30
2023-04-17T23:49:54.347Z,29.05
2023-04-17T23:52:21.954Z,32.70
2023-04-17T23:54:50.080Z,33.35
2023-04-17T23:57:18.046Z,29.17
2023-04-17T23:59:46.127Z,29.85
